createdAt,value
2019-05-22T00:02:19.283Z,26.33
2019-05-22T00:04:58.100Z,25.13
2019-05-22T00:07:28.682Z,29.87
2019-05-22T00:09:58.838Z,25.73
2019-05-22T00:12:45.751Z,29.40
2019-05-22T00:15:04.216Z,27.07
2019-05-22T00:17:35.919Z,31.50
2019-05-22T00:20:06.505Z,26.30
2019-05-22T00:22:38.163Z,24.03
2019-05-22T00:25:10.506Z,27.20
2019-05-22T00:27:40.771Z,27.13
2019-05-22T00:30:14.289Z,26.90
2019-05-22T00:32:47.353Z,26.00
2019-05-22T00:35:19.055Z,23.83
2019-05-22T00:37:49.623Z,25.90
2019-05-22T00:40:20.679Z,28.67
2019-05-22T00:43:03.433Z,30.90
2019-05-22T00:45:25.257Z,29.27
2019-05-22T00:47:54.797Z,30.23
2019-05-22T00:50:30.207Z,34.90
2019-05-22T00:53:02.743Z,39.47
2019-05-22T00:55:34.868Z,37.88
2019-05-22T00:58:07.812Z,33.60
2019-05-22T01:00:49.311Z,35.07
2019-05-22T01:03:22.458Z,35.37
2019-05-22T01:05:52.087Z,36.30
2019-05-22T01:08:24.807Z,35.17
2019-05-22T01:10:56.132Z,32.67
2019-05-22T01:13:30.486Z,42.00
2019-05-22T01:16:01.872Z,36.03
2019-05-22T01:18:52.591Z,35.63
2019-05-22T01:21:24.537Z,39.43
2019-05-22T01:23:55.715Z,43.23
2019-05-22T01:26:26.094Z,41.98
2019-05-22T01:28:55.994Z,39.60
2019-05-22T01:31:33.037Z,44.90
2019-05-22T01:34:06.246Z,40.17
2019-05-22T01:36:39.371Z,41.80
2019-05-22T01:39:14.609Z,40.83
2019-05-22T01:41:48.228Z,41.53
2019-05-22T01:44:19.089Z,35.20
2019-05-22T01:46:50.488Z,38.37
2019-05-22T01:49:21.986Z,34.43
2019-05-22T01:51:55.152Z,32.47
2019-05-22T01:54:25.901Z,38.77
2019-05-22T01:56:57.327Z,38.67
2019-05-22T01:59:27.841Z,35.37
2019-05-22T02:01:57.877Z,37.70
2019-05-22T02:04:29.282Z,35.17
2019-05-22T02:06:58.721Z,32.57
2019-05-22T02:09:37.514Z,30.00
2019-05-22T02:12:20.273Z,35.75
2019-05-22T02:14:51.937Z,30.47
2019-05-22T02:17:25.756Z,36.70
2019-05-22T02:19:55.357Z,38.47
2019-05-22T02:22:26.411Z,35.10
2019-05-22T02:24:56.632Z,36.17
2019-05-22T02:27:26.370Z,35.87
2019-05-22T02:29:55.877Z,35.30
2019-05-22T02:32:26.155Z,34.97
2019-05-22T02:34:56.886Z,39.27
2019-05-22T02:37:28.625Z,42.70
2019-05-22T02:39:58.500Z,34.23
2019-05-22T02:42:30.877Z,41.50
2019-05-22T02:45:01.829Z,39.73
2019-05-22T02:47:31.786Z,35.17
2019-05-22T02:50:01.828Z,34.87
2019-05-22T02:52:31.664Z,36.97
2019-05-22T02:55:02.097Z,34.00
2019-05-22T02:57:32.933Z,35.40
2019-05-22T03:00:03.045Z,34.93
2019-05-22T03:02:35.016Z,36.23
2019-05-22T03:05:09.952Z,38.07
2019-05-22T03:07:42.022Z,35.67
2019-05-22T03:10:15.511Z,29.00
2019-05-22T03:12:45.562Z,33.03
2019-05-22T03:15:18.050Z,33.07
2019-05-22T03:17:47.941Z,37.93
2019-05-22T03:20:19.794Z,37.03
2019-05-22T03:22:55.449Z,37.83
2019-05-22T03:25:27.153Z,39.83
2019-05-22T03:27:57.625Z,37.60
2019-05-22T03:30:33.866Z,33.57
2019-05-22T03:33:05.884Z,36.93
2019-05-22T03:35:47.150Z,36.50
2019-05-22T03:38:18.185Z,38.53
2019-05-22T03:40:50.917Z,36.30
2019-05-22T03:43:25.055Z,28.60
2019-05-22T03:45:57.811Z,31.50
2019-05-22T03:48:31.965Z,33.37
2019-05-22T03:51:13.470Z,34.60
2019-05-22T03:53:44.082Z,31.37
2019-05-22T03:56:16.134Z,39.27
2019-05-22T03:58:48.316Z,34.10
2019-05-22T04:01:19.485Z,34.00
2019-05-22T04:03:50.357Z,34.93
2019-05-22T04:06:20.921Z,30.70
2019-05-22T04:08:51.780Z,36.57
2019-05-22T04:11:21.913Z,34.40
2019-05-22T04:13:51.500Z,34.15
2019-05-22T04:16:28.611Z,31.00
2019-05-22T04:19:02.579Z,31.60
2019-05-22T04:21:32.364Z,37.07
2019-05-22T04:24:02.872Z,36.90
2019-05-22T04:26:34.338Z,39.87
2019-05-22T04:29:04.487Z,38.13
2019-05-22T04:32:00.621Z,37.83
2019-05-22T04:34:30.615Z,33.00
2019-05-22T04:37:01.138Z,34.23
2019-05-22T04:39:33.081Z,34.40
2019-05-22T04:42:04.185Z,32.97
2019-05-22T04:44:33.769Z,34.57
2019-05-22T04:47:04.639Z,33.73
2019-05-22T04:49:34.746Z,39.03
2019-05-22T04:52:05.864Z,36.97
2019-05-22T04:54:35.635Z,33.43
2019-05-22T04:57:06.787Z,35.60
2019-05-22T04:59:37.603Z,32.37
2019-05-22T05:02:07.675Z,34.23
2019-05-22T05:04:37.598Z,28.37
2019-05-22T05:07:08.658Z,28.17
2019-05-22T05:09:38.354Z,31.97
2019-05-22T05:12:08.814Z,34.73
2019-05-22T05:14:41.614Z,32.20
2019-05-22T05:17:11.524Z,30.02
2019-05-22T05:19:41.027Z,34.63
2019-05-22T05:22:13.734Z,30.27
2019-05-22T05:24:44.237Z,28.10
2019-05-22T05:27:13.966Z,35.20
2019-05-22T05:29:43.519Z,38.30
2019-05-22T05:32:13.440Z,30.92
2019-05-22T05:34:47.247Z,31.53
2019-05-22T05:37:18.787Z,31.00
2019-05-22T05:39:54.552Z,33.27
2019-05-22T05:42:24.272Z,32.50
2019-05-22T05:44:53.713Z,33.73
2019-05-22T05:47:23.848Z,31.20
2019-05-22T05:49:53.286Z,35.90
2019-05-22T05:52:24.100Z,34.80
2019-05-22T05:54:54.458Z,31.57
2019-05-22T05:57:38.986Z,31.90
2019-05-22T06:00:35.665Z,32.37
2019-05-22T06:03:12.109Z,30.57
2019-05-22T06:05:41.822Z,31.97
2019-05-22T06:08:11.468Z,29.63
2019-05-22T06:10:47.460Z,29.77
2019-05-22T06:13:17.588Z,32.23
2019-05-22T06:15:56.214Z,29.53
2019-05-22T06:18:34.683Z,30.40
2019-05-22T06:21:06.233Z,33.13
2019-05-22T06:23:42.252Z,29.07
2019-05-22T06:26:18.638Z,27.67
2019-05-22T06:28:49.588Z,26.90
2019-05-22T06:31:40.420Z,32.23
2019-05-22T06:34:10.689Z,25.23
2019-05-22T06:36:42.256Z,30.73
2019-05-22T06:39:13.818Z,29.43
2019-05-22T06:41:43.997Z,29.53
2019-05-22T06:44:34.141Z,28.77
2019-05-22T06:47:05.799Z,31.63
2019-05-22T06:49:38.758Z,29.67
2019-05-22T06:52:08.854Z,30.97
2019-05-22T06:54:39.000Z,23.63
2019-05-22T06:57:11.754Z,26.57
2019-05-22T06:59:41.929Z,25.93
2019-05-22T07:02:13.925Z,25.93
2019-05-22T07:04:44.265Z,29.27
2019-05-22T07:07:14.251Z,27.10
2019-05-22T07:09:44.849Z,27.67
2019-05-22T07:12:16.274Z,26.67
2019-05-22T07:15:02.286Z,24.97
2019-05-22T07:17:31.966Z,26.37
2019-05-22T07:20:03.454Z,21.33
2019-05-22T07:22:32.968Z,21.93
2019-05-22T07:25:04.014Z,27.53
2019-05-22T07:27:34.674Z,25.57
2019-05-22T07:30:07.844Z,22.87
2019-05-22T07:32:38.101Z,24.20
2019-05-22T07:35:08.472Z,23.80
2019-05-22T07:37:42.670Z,20.00
2019-05-22T07:40:14.122Z,20.63
2019-05-22T07:42:43.939Z,21.53
2019-05-22T07:45:15.614Z,29.37
2019-05-22T07:47:45.325Z,20.40
2019-05-22T07:50:15.820Z,21.60
2019-05-22T07:52:45.632Z,21.97
2019-05-22T07:55:17.016Z,19.20
2019-05-22T07:57:52.500Z,20.23
2019-05-22T08:00:22.333Z,23.10
2019-05-22T08:02:52.034Z,18.63
2019-05-22T08:05:23.071Z,17.47
2019-05-22T08:07:54.515Z,16.13
2019-05-22T08:10:24.621Z,20.30
2019-05-22T08:12:54.062Z,16.90
2019-05-22T08:15:24.435Z,20.13
2019-05-22T08:17:54.188Z,13.67
2019-05-22T08:20:23.852Z,14.20
2019-05-22T08:22:55.414Z,15.43
2019-05-22T08:25:26.994Z,16.20
2019-05-22T08:27:56.981Z,16.73
2019-05-22T08:30:26.940Z,17.97
2019-05-22T08:32:59.810Z,14.87
2019-05-22T08:35:30.646Z,14.20
2019-05-22T08:38:00.530Z,12.55
2019-05-22T08:40:30.755Z,16.63
2019-05-22T08:43:00.895Z,12.73
2019-05-22T08:45:33.325Z,14.78
2019-05-22T08:48:03.208Z,15.73
2019-05-22T08:50:34.840Z,16.32
2019-05-22T08:53:05.051Z,13.83
2019-05-22T08:55:35.730Z,17.30
2019-05-22T08:58:05.847Z,11.95
2019-05-22T09:00:37.073Z,12.90
2019-05-22T09:03:06.615Z,12.03
2019-05-22T09:05:36.486Z,13.07
2019-05-22T09:08:07.092Z,13.50
2019-05-22T09:10:37.233Z,13.80
2019-05-22T09:13:06.633Z,13.47
2019-05-22T09:15:38.565Z,10.57
2019-05-22T09:18:08.841Z,11.10
2019-05-22T09:20:48.653Z,10.43
2019-05-22T09:23:11.627Z,9.93
2019-05-22T09:25:41.990Z,11.47
2019-05-22T09:28:12.314Z,12.10
2019-05-22T09:30:42.810Z,11.20
2019-05-22T09:33:13.432Z,8.20
2019-05-22T09:35:43.440Z,11.03
2019-05-22T09:38:13.803Z,10.97
2019-05-22T09:40:43.372Z,14.05
2019-05-22T09:43:13.476Z,10.43
2019-05-22T09:45:42.927Z,12.23
2019-05-22T09:48:12.655Z,9.75
2019-05-22T09:50:42.338Z,7.80
2019-05-22T09:53:12.263Z,9.57
2019-05-22T09:55:46.923Z,8.23
2019-05-22T09:58:14.056Z,9.97
2019-05-22T10:00:43.931Z,11.73
2019-05-22T10:03:14.713Z,9.85
2019-05-22T10:05:44.776Z,7.54
2019-05-22T10:08:15.207Z,9.88
2019-05-22T10:10:45.186Z,8.33
2019-05-22T10:13:14.708Z,9.58
2019-05-22T10:15:45.805Z,8.98
2019-05-22T10:18:15.331Z,11.15
2019-05-22T10:20:46.001Z,9.60
2019-05-22T10:23:16.581Z,9.08
2019-05-22T10:25:48.877Z,10.60
2019-05-22T10:28:18.386Z,9.30
2019-05-22T10:30:48.109Z,7.33
2019-05-22T10:33:18.187Z,6.17
2019-05-22T10:35:49.994Z,7.62
2019-05-22T10:38:20.260Z,8.05
2019-05-22T10:40:49.873Z,6.50
2019-05-22T10:43:19.468Z,7.12
2019-05-22T10:45:48.986Z,9.18
2019-05-22T10:48:18.490Z,8.27
2019-05-22T10:50:48.374Z,7.70
2019-05-22T10:53:32.449Z,7.58
2019-05-22T10:55:50.333Z,6.40
2019-05-22T10:58:20.027Z,9.97
2019-05-22T11:00:49.479Z,9.40
2019-05-22T11:03:19.393Z,8.35
2019-05-22T11:06:05.842Z,5.78
2019-05-22T11:08:20.631Z,6.03
2019-05-22T11:10:50.416Z,7.15
2019-05-22T11:13:20.843Z,9.73
2019-05-22T11:15:51.619Z,7.80
2019-05-22T11:18:21.409Z,8.35
2019-05-22T11:20:51.115Z,8.30
2019-05-22T11:23:20.602Z,5.83
2019-05-22T11:25:50.530Z,6.60
2019-05-22T11:28:20.054Z,7.10
2019-05-22T11:30:50.013Z,6.92
2019-05-22T11:33:19.886Z,7.60
2019-05-22T11:35:49.839Z,5.83
2019-05-22T11:38:19.459Z,10.00
2019-05-22T11:40:49.365Z,7.95
2019-05-22T11:43:20.322Z,8.13
2019-05-22T11:45:49.972Z,8.27
2019-05-22T11:48:20.091Z,8.25
2019-05-22T11:50:50.082Z,9.25
2019-05-22T11:53:19.531Z,8.57
2019-05-22T11:55:50.245Z,5.35
2019-05-22T11:58:20.257Z,8.08
2019-05-22T12:00:49.956Z,6.37
2019-05-22T12:03:20.497Z,5.73
2019-05-22T12:05:50.583Z,5.17
2019-05-22T12:08:21.189Z,6.80
2019-05-22T12:10:51.975Z,6.22
2019-05-22T12:13:22.378Z,8.03
2019-05-22T12:15:53.143Z,5.67
2019-05-22T12:18:23.344Z,7.60
2019-05-22T12:20:53.132Z,7.12
2019-05-22T12:23:22.718Z,8.60
2019-05-22T12:25:53.355Z,6.53
2019-05-22T12:28:23.698Z,7.45
2019-05-22T12:30:53.315Z,11.43
2019-05-22T12:33:23.488Z,8.33
2019-05-22T12:35:52.963Z,7.55
2019-05-22T12:38:26.549Z,7.47
2019-05-22T12:40:54.425Z,7.45
2019-05-22T12:43:24.233Z,5.80
2019-05-22T12:45:53.924Z,6.22
2019-05-22T12:48:24.163Z,9.98
2019-05-22T12:50:54.463Z,6.45
2019-05-22T12:53:24.639Z,4.30
2019-05-22T12:55:54.408Z,8.35
2019-05-22T12:58:23.923Z,7.25
2019-05-22T13:00:54.545Z,5.28
2019-05-22T13:03:24.991Z,5.03
2019-05-22T13:05:55.181Z,5.05
2019-05-22T13:08:26.055Z,7.12
2019-05-22T13:10:55.514Z,5.87
2019-05-22T13:13:25.027Z,5.67
2019-05-22T13:15:55.493Z,4.70
2019-05-22T13:18:25.175Z,6.33
2019-05-22T13:20:54.981Z,4.60
2019-05-22T13:23:28.851Z,6.78
2019-05-22T13:25:58.939Z,5.87
2019-05-22T13:28:30.425Z,5.80
2019-05-22T13:31:00.748Z,7.58
2019-05-22T13:33:31.864Z,3.35
2019-05-22T13:36:02.939Z,4.80
2019-05-22T13:38:33.611Z,8.95
2019-05-22T13:41:04.404Z,8.10
2019-05-22T13:43:35.132Z,7.62
2019-05-22T13:46:06.196Z,8.23
2019-05-22T13:48:35.987Z,6.92
2019-05-22T13:51:06.015Z,6.37
2019-05-22T13:53:35.673Z,7.95
2019-05-22T13:56:06.300Z,8.30
2019-05-22T13:58:36.665Z,8.63
2019-05-22T14:01:07.408Z,8.73
2019-05-22T14:03:37.243Z,8.93
2019-05-22T14:06:07.081Z,6.13
2019-05-22T14:08:36.682Z,6.72
2019-05-22T14:11:06.960Z,7.62
2019-05-22T14:13:36.885Z,8.93
2019-05-22T14:16:06.491Z,6.30
2019-05-22T14:18:36.564Z,6.32
2019-05-22T14:21:06.748Z,6.85
2019-05-22T14:23:36.367Z,8.10
2019-05-22T14:26:05.907Z,7.03
2019-05-22T14:28:36.953Z,4.87
2019-05-22T14:31:06.455Z,9.65
2019-05-22T14:33:40.357Z,5.10
2019-05-22T14:36:09.256Z,6.10
2019-05-22T14:38:39.615Z,5.30
2019-05-22T14:41:10.388Z,5.85
2019-05-22T14:43:40.240Z,5.20
2019-05-22T14:46:09.695Z,6.60
2019-05-22T14:48:41.752Z,5.10
2019-05-22T14:51:11.282Z,6.10
2019-05-22T14:53:41.891Z,5.08
2019-05-22T14:56:11.663Z,5.47
2019-05-22T14:58:43.821Z,4.95
2019-05-22T15:01:13.624Z,5.90
2019-05-22T15:03:43.700Z,6.40
2019-05-22T15:06:14.286Z,8.73
2019-05-22T15:08:43.988Z,10.00
2019-05-22T15:11:16.810Z,6.42
2019-05-22T15:13:46.807Z,7.35
2019-05-22T15:16:17.074Z,5.65
2019-05-22T15:18:46.600Z,4.92
2019-05-22T15:21:17.279Z,6.05
2019-05-22T15:23:47.828Z,9.30
2019-05-22T15:26:17.423Z,8.03
2019-05-22T15:28:47.045Z,7.20
2019-05-22T15:31:17.207Z,5.72
2019-05-22T15:33:47.633Z,4.60
2019-05-22T15:36:19.051Z,6.62
2019-05-22T15:38:49.865Z,5.80
2019-05-22T15:41:19.324Z,5.60
2019-05-22T15:43:53.166Z,6.40
2019-05-22T15:46:22.188Z,9.28
2019-05-22T15:48:53.578Z,10.40
2019-05-22T15:51:27.122Z,5.10
2019-05-22T15:54:00.460Z,6.67
2019-05-22T15:56:33.918Z,6.80
2019-05-22T15:59:07.354Z,5.72
2019-05-22T16:01:37.447Z,8.88
2019-05-22T16:04:10.098Z,6.90
2019-05-22T16:06:40.378Z,5.15
2019-05-22T16:09:14.058Z,7.10
2019-05-22T16:11:45.392Z,5.53
2019-05-22T16:14:15.615Z,5.58
2019-05-22T16:16:48.243Z,4.90
2019-05-22T16:19:19.359Z,4.62
2019-05-22T16:21:51.119Z,6.70
2019-05-22T16:24:20.786Z,7.70
2019-05-22T16:26:51.152Z,7.37
2019-05-22T16:29:23.673Z,7.75
2019-05-22T16:31:54.064Z,7.90
2019-05-22T16:34:23.806Z,5.80
2019-05-22T16:36:54.294Z,6.25
2019-05-22T16:39:26.158Z,8.90
2019-05-22T16:41:56.445Z,6.72
2019-05-22T16:44:27.133Z,8.50
2019-05-22T16:46:58.784Z,7.10
2019-05-22T16:49:28.682Z,5.28
2019-05-22T16:51:59.854Z,5.95
2019-05-22T16:54:32.032Z,5.10
2019-05-22T16:57:02.000Z,5.25
2019-05-22T16:59:36.701Z,4.17
2019-05-22T17:02:10.013Z,4.43
2019-05-22T17:04:39.415Z,5.72
2019-05-22T17:07:09.652Z,8.30
2019-05-22T17:09:43.292Z,6.17
2019-05-22T17:12:13.823Z,5.07
2019-05-22T17:14:44.657Z,3.70
2019-05-22T17:17:17.165Z,6.72
2019-05-22T17:19:46.828Z,5.78
2019-05-22T17:22:17.532Z,5.40
2019-05-22T17:24:48.329Z,2.92
2019-05-22T17:27:19.239Z,5.53
2019-05-22T17:29:50.852Z,4.42
2019-05-22T17:32:21.894Z,4.63
2019-05-22T17:34:51.744Z,5.00
2019-05-22T17:37:25.199Z,7.53
2019-05-22T17:39:56.196Z,6.43
2019-05-22T17:42:27.348Z,5.45
2019-05-22T17:44:57.572Z,4.87
2019-05-22T17:47:27.955Z,6.10
2019-05-22T17:50:00.815Z,4.28
2019-05-22T17:52:32.431Z,3.08
2019-05-22T17:55:02.491Z,7.40
2019-05-22T17:57:33.411Z,6.07
2019-05-22T18:00:05.210Z,3.83
2019-05-22T18:02:36.475Z,3.83
2019-05-22T18:05:08.564Z,5.80
2019-05-22T18:07:39.634Z,3.77
2019-05-22T18:10:11.754Z,4.15
2019-05-22T18:12:42.020Z,4.72
2019-05-22T18:15:15.883Z,7.08
2019-05-22T18:17:45.479Z,5.90
2019-05-22T18:20:15.955Z,7.33
2019-05-22T18:23:07.162Z,8.00
2019-05-22T18:25:45.285Z,6.08
2019-05-22T18:28:15.743Z,5.60
2019-05-22T18:30:47.170Z,6.17
2019-05-22T18:33:16.754Z,6.87
2019-05-22T18:35:46.729Z,7.30
2019-05-22T18:38:16.226Z,4.77
2019-05-22T18:40:47.305Z,4.97
2019-05-22T18:43:18.935Z,6.73
2019-05-22T18:45:48.672Z,3.45
2019-05-22T18:48:18.365Z,5.57
2019-05-22T18:50:48.258Z,7.30
2019-05-22T18:53:17.805Z,7.22
2019-05-22T18:55:47.370Z,5.90
2019-05-22T18:58:16.993Z,3.97
2019-05-22T19:00:47.646Z,5.83
2019-05-22T19:03:17.186Z,3.77
2019-05-22T19:05:46.721Z,12.17
2019-05-22T19:08:16.278Z,5.22
2019-05-22T19:11:05.499Z,5.75
2019-05-22T19:13:53.046Z,4.97
2019-05-22T19:16:25.976Z,4.80
2019-05-22T19:18:56.395Z,4.62
2019-05-22T19:21:25.898Z,5.43
2019-05-22T19:23:55.473Z,5.60
2019-05-22T19:26:25.221Z,6.47
2019-05-22T19:28:54.685Z,7.73
2019-05-22T19:31:24.638Z,7.30
2019-05-22T19:33:54.264Z,7.17
2019-05-22T19:36:23.769Z,6.30
2019-05-22T19:38:54.474Z,7.10
2019-05-22T19:41:24.566Z,7.03
2019-05-22T19:43:54.187Z,6.57
2019-05-22T19:46:23.890Z,7.37
2019-05-22T19:48:53.622Z,5.67
2019-05-22T19:51:23.518Z,9.83
2019-05-22T19:53:53.190Z,6.50
2019-05-22T19:56:24.110Z,4.93
2019-05-22T19:58:53.723Z,5.37
2019-05-22T20:01:24.566Z,7.37
2019-05-22T20:03:54.255Z,6.17
2019-05-22T20:06:24.312Z,7.33
2019-05-22T20:08:54.711Z,6.60
2019-05-22T20:11:24.557Z,4.87
2019-05-22T20:13:55.425Z,8.53
2019-05-22T20:16:25.020Z,6.93
2019-05-22T20:18:54.463Z,7.03
2019-05-22T20:21:24.823Z,6.30
2019-05-22T20:23:54.388Z,8.57
2019-05-22T20:26:24.053Z,7.23
2019-05-22T20:28:54.812Z,7.53
2019-05-22T20:31:24.586Z,10.17
2019-05-22T20:33:54.417Z,5.67
2019-05-22T20:36:24.544Z,7.10
2019-05-22T20:38:54.160Z,5.93
2019-05-22T20:41:23.941Z,5.67
2019-05-22T20:43:53.967Z,7.17
2019-05-22T20:46:26.633Z,6.23
2019-05-22T20:48:56.706Z,6.83
2019-05-22T20:51:26.993Z,9.43
2019-05-22T20:53:57.648Z,6.00
2019-05-22T20:56:29.606Z,7.53
2019-05-22T20:58:59.806Z,9.70
2019-05-22T21:01:30.202Z,8.37
2019-05-22T21:04:03.952Z,11.47
2019-05-22T21:06:36.481Z,9.80
2019-05-22T21:09:06.753Z,8.73
2019-05-22T21:11:36.352Z,10.53
2019-05-22T21:14:06.300Z,9.77
2019-05-22T21:16:35.980Z,10.30
2019-05-22T21:19:07.685Z,10.30
2019-05-22T21:21:37.199Z,8.83
2019-05-22T21:24:11.562Z,8.80
2019-05-22T21:26:39.162Z,8.47
2019-05-22T21:29:09.988Z,10.30
2019-05-22T21:31:39.886Z,9.70
2019-05-22T21:34:09.566Z,9.40
2019-05-22T21:36:39.537Z,10.63
2019-05-22T21:39:12.200Z,8.70
2019-05-22T21:41:42.154Z,10.23
2019-05-22T21:44:12.287Z,10.37
2019-05-22T21:46:42.473Z,10.30
2019-05-22T21:49:12.256Z,11.57
2019-05-22T21:51:41.762Z,9.68
2019-05-22T21:54:13.199Z,9.70
2019-05-22T21:56:43.600Z,11.20
2019-05-22T21:59:13.974Z,11.70
2019-05-22T22:01:48.140Z,12.63
2019-05-22T22:04:23.952Z,14.47
2019-05-22T22:06:55.436Z,13.13
2019-05-22T22:09:26.332Z,12.73
2019-05-22T22:11:56.255Z,12.60
2019-05-22T22:14:25.950Z,11.15
2019-05-22T22:16:55.528Z,12.40
2019-05-22T22:19:25.547Z,15.10
2019-05-22T22:21:55.232Z,11.83
2019-05-22T22:24:24.675Z,11.80
2019-05-22T22:26:55.460Z,12.83
2019-05-22T22:29:25.337Z,10.27
2019-05-22T22:31:57.024Z,11.23
2019-05-22T22:34:31.193Z,11.90
2019-05-22T22:37:01.219Z,12.80
2019-05-22T22:39:32.619Z,12.20
2019-05-22T22:42:03.504Z,11.53
2019-05-22T22:44:33.392Z,12.37
2019-05-22T22:47:07.104Z,15.40
2019-05-22T22:49:37.870Z,12.33
2019-05-22T22:52:08.950Z,11.83
2019-05-22T22:54:38.640Z,13.87
2019-05-22T22:57:09.148Z,12.23
2019-05-22T22:59:38.625Z,13.53
2019-05-22T23:02:12.622Z,13.07
2019-05-22T23:04:44.218Z,14.33
2019-05-22T23:07:16.253Z,11.87
2019-05-22T23:09:49.238Z,12.60
2019-05-22T23:12:21.472Z,14.17
2019-05-22T23:14:54.964Z,14.93
2019-05-22T23:17:26.070Z,12.10
2019-05-22T23:19:54.964Z,15.10
2019-05-22T23:22:24.882Z,14.10
2019-05-22T23:24:56.026Z,15.17
2019-05-22T23:27:28.976Z,16.20
2019-05-22T23:29:59.867Z,18.00
2019-05-22T23:32:31.603Z,13.50
2019-05-22T23:35:02.133Z,14.07
2019-05-22T23:37:33.329Z,14.00
2019-05-22T23:40:04.217Z,16.53
2019-05-22T23:42:38.038Z,15.20
2019-05-22T23:45:11.960Z,14.57
2019-05-22T23:47:50.847Z,13.05
2019-05-22T23:50:21.073Z,14.17
2019-05-22T23:52:50.732Z,14.63
2019-05-22T23:55:21.235Z,14.93
2019-05-22T23:57:51.577Z,16.03
